• Join FlightAware (Why Join?)
  • Login
  • US Flag 
03:13PM EST


 

Airport Tracker/Info


-or-


 

Live Flight TrackerFlight Track Log ✈ EJA312 ✈ 21-Oct-2013 ✈ KAPF - KBFD

Flight Track Log - Related Links

Times and Time Zones

All times are in EDT time to prevent confusion due to time zone crossing. See the EJA312 flight status page for this flight to view local times or setup timezone preferences in your user account.

Time Position Orientation Groundspeed Altitude Reporting Facility
EDT Latitude Longitude Course Direction KTS MPH feet Rate Location/Type
10:17AM 26.2656 -81.6958 350° North 248 285 7,100  Level Miami Center
10:18AM 26.3386 -81.6989 358° North 248 285 10,200 2,760 Climbing Miami Center
10:19AM 26.4156 -81.7044 356° North 271 312 12,700 2,400 Climbing Miami Center
10:20AM 26.4989 -81.7103 356° North 287 330 15,100 1,620 Climbing Miami Center
10:21AM 26.7554 -81.6738 352° North  Level Estimated
10:21AM 26.5906 -81.7186 355° North 306 352 16,000  Level Miami Center
10:22AM 26.8760 -81.6532 350° North  Level Estimated
10:22AM 26.6989 -81.7208 359° North 337 388 16,000  Level Miami Center
10:23AM 26.8092 -81.7322 355° North 391 450 16,000 540 Level Miami Center
10:24AM 26.9114 -81.7389 357° North 406 467 17,100 1,380 Climbing Miami Center
10:25AM 27.0322 -81.7464 357° North 393 452 18,800 1,680 Climbing Miami Center
10:26AM 27.1333 -81.7808 343° North 387 445 20,500 1,740 Climbing Miami Center
10:27AM 27.2344 -81.8156 343° North 382 440 22,300 1,740 Climbing Miami Center
10:28AM 27.3250 -81.8450 344° North 376 433 24,000 1,620 Climbing Miami Center
10:29AM 27.4219 -81.8797 342° North 376 433 25,600 1,560 Climbing Miami Center
10:30AM 27.5333 -81.9172 343° North 376 433 27,200 1,320 Climbing Miami Center
10:31AM 27.6394 -81.9292 354° North 376 433 28,300 1,140 Climbing Miami Center
10:32AM 27.7394 -81.8725 27° Northeast 383 441 29,500 1,140 Climbing Miami Center
10:33AM 27.8272 -81.8131 31° Northeast 393 452 30,600 1,140 Climbing Miami Center
10:34AM 27.9275 -81.7469 30° Northeast 406 467 31,800 1,200 Climbing Miami Center
10:35AM 28.0319 -81.6786 30° Northeast 419 482 33,000 1,140 Climbing Miami Center
10:36AM 28.1344 -81.6100 31° Northeast 424 488 34,100 960 Climbing Miami Center
10:37AM 28.2386 -81.5508 27° Northeast 424 488 35,000 420 Climbing Miami Center
10:38AM 28.3597 -81.5442 North 414 476 35,000  Level Miami Center
10:41AM 28.7333 -81.5358 North 452 520 35,000 180 Level Jacksonville Center
10:42AM 28.8419 -81.5344 North 452 520 35,800 900 Climbing Jacksonville Center
10:43AM 28.9628 -81.5328 North 442 509 36,900 1,080 Climbing Jacksonville Center
10:44AM 29.0819 -81.5336 360° North 437 503 38,000 1,080 Climbing Jacksonville Center
10:45AM 29.1967 -81.5294 North 418 481 39,100 1,140 Climbing Jacksonville Center
10:46AM 29.3197 -81.5278 North 406 467 40,300 900 Climbing Jacksonville Center
10:47AM 29.4325 -81.5264 North 401 461 41,000 300 Climbing Jacksonville Center
10:48AM 29.5472 -81.5247 North 406 467 41,000  Level Jacksonville Center
10:49AM 29.6642 -81.5231 North 406 467 41,000  Level Jacksonville Center
10:50AM 29.7811 -81.5214 North 411 473 41,000  Level Jacksonville Center
10:51AM 29.8958 -81.5175 North 416 479 41,000  Level Jacksonville Center
10:52AM 30.0128 -81.5156 North 416 479 41,000  Level Jacksonville Center
10:53AM 30.1317 -81.5139 North 416 479 41,000  Level Jacksonville Center
10:54AM 30.2464 -81.5100 North 421 484 41,000  Level Jacksonville Center
10:55AM 30.3633 -81.5083 North 421 484 41,000  Level Jacksonville Center
10:56AM 30.4719 -81.4994 North 426 490 41,000  Level Jacksonville Center
10:57AM 30.5886 -81.4906 North 420 483 41,000  Level Jacksonville Center
10:58AM 30.7075 -81.4817 North 420 483 41,000  Level Jacksonville Center
10:59AM 30.8222 -81.4725 North 420 483 41,000  Level Jacksonville Center
11:00AM 30.9392 -81.4636 North 420 483 41,000  Level Jacksonville Center
11:01AM 31.0558 -81.4522 North 420 483 41,000  Level Jacksonville Center
11:02AM 31.1728 -81.4431 North 420 483 41,000  Level Jacksonville Center
11:03AM 31.2894 -81.4289 North 420 483 41,000  Level Jacksonville Center
11:04AM 31.4042 -81.4125 North 420 483 41,000  Level Jacksonville Center
11:05AM 31.5333 -81.3958 North 420 483 41,000  Level Jacksonville Center
11:06AM 31.6461 -81.3794 North 426 490 41,000  Level Jacksonville Center
11:07AM 31.7544 -81.3631 North 419 482 41,000  Level Jacksonville Center
11:08AM 31.8814 -81.3464 North 426 490 41,000  Level Jacksonville Center
11:09AM 31.9919 -81.3297 North 426 490 41,000  Level Jacksonville Center
11:10AM 32.1086 -81.3131 North 426 490 41,000  Level Jacksonville Center
11:11AM 32.2294 -81.2939 North 426 490 41,000  Level Jacksonville Center
11:12AM 32.3503 -81.2794 North 426 490 41,000  Level Jacksonville Center
11:13AM 32.4817 -81.2622 North 431 496 41,000  Level Jacksonville Center
11:14AM 32.6025 -81.2453 North 429 494 41,000  Level Jacksonville Center
11:15AM 32.7089 -81.2286 North 429 494 41,000  Level Jacksonville Center
11:16AM 32.8297 -81.2089 North 429 494 41,000  Level Jacksonville Center
11:17AM 32.9525 -81.1919 North 429 494 41,000  Level Jacksonville Center
11:18AM 33.0756 -81.1747 North 434 499 41,000  Level Jacksonville Center
11:19AM 33.1922 -81.1575 North 434 499 41,000  Level Jacksonville Center
11:20AM 33.3150 -81.1403 North 434 499 41,000  Level Jacksonville Center
11:21AM 33.4358 -81.1231 North 434 499 41,000  Level Jacksonville Center
11:22AM 33.5525 -81.1031 North 429 494 41,000  Level Jacksonville Center
11:23AM 33.6733 -81.0858 North 429 494 41,000  Level Jacksonville Center
11:24AM 33.7939 -81.0633 North 429 494 41,000  Level Jacksonville Center
11:25AM 33.9272 -81.0381 North 429 494 41,000  Level Jacksonville Center
11:26AM 34.0347 -80.9706 27° Northeast 448 516 41,000  Level Jacksonville Center
11:28AM 34.3036 -80.8403 22° Northeast 460 529 41,000  Level Atlanta Center
11:29AM 34.4231 -80.7853 21° North 460 529 41,000  Level Atlanta Center
11:30AM 34.5428 -80.7278 22° Northeast 470 541 41,000  Level Atlanta Center
11:31AM 34.6642 -80.6672 22° Northeast 465 535 41,000  Level Atlanta Center
11:32AM 34.7856 -80.6069 22° Northeast 465 535 41,000  Level Atlanta Center
11:33AM 34.9069 -80.5461 22° Northeast 470 541 41,000  Level Atlanta Center
11:34AM 35.0325 -80.4825 23° Northeast 475 547 41,000  Level Atlanta Center
11:35AM 35.1517 -80.4239 22° Northeast 466 536 41,000  Level Atlanta Center
11:36AM 35.2753 -80.3628 22° Northeast 466 536 41,000  Level Atlanta Center
11:37AM 35.3861 -80.3067 22° Northeast 471 542 41,000  Level Atlanta Center
11:38AM 35.5053 -80.2478 22° Northeast 464 534 41,000  Level Atlanta Center
11:39AM 35.6286 -80.1858 22° Northeast 470 541 41,000  Level Atlanta Center
11:41AM 35.8956 -80.0561 21° North 486 559 41,000  Level Washington Center
11:42AM 36.0147 -79.9933 23° Northeast 473 544 41,000  Level Washington Center
11:43AM 36.1414 -79.9517 15° North 473 544 41,000  Level Washington Center
11:44AM 36.2658 -79.9122 14° North 461 531 41,000  Level Washington Center
11:45AM 36.3883 -79.8750 14° North 461 531 41,000  Level Washington Center
11:46AM 36.5128 -79.8381 13° North 456 525 41,000  Level Washington Center
11:47AM 36.6392 -79.7983 14° North 456 525 41,000  Level Washington Center
11:48AM 36.7636 -79.7611 13° North 456 525 41,000  Level Washington Center
11:49AM 36.8753 -79.7281 13° North 456 525 41,000  Level Washington Center
11:50AM 37.0019 -79.6906 13° North 456 525 41,000  Level Washington Center
11:51AM 37.1261 -79.6531 14° North 456 525 41,000  Level Washington Center
11:52AM 37.2528 -79.6153 13° North 456 525 41,000  Level Washington Center
11:53AM 37.3897 -79.5728 14° North 456 525 41,000  Level Washington Center
11:54AM 37.5206 -79.5300 15° North 472 543 41,000  Level Washington Center
11:55AM 37.6364 -79.4967 13° North 479 551 41,000  Level Washington Center
11:56AM 37.7669 -79.4561 14° North 473 544 41,000  Level Washington Center
11:57AM 37.9081 -79.4133 13° North 476 548 41,000  Level Washington Center
11:58AM 38.0322 -79.3750 14° North 476 548 41,000  Level Washington Center
11:59AM 38.1628 -79.3339 14° North 476 548 41,000  Level Washington Center
12:00PM 38.2914 -79.2956 13° North 476 548 41,000  Level Washington Center
12:01PM 38.4072 -79.2561 15° North 476 548 41,000  Level Washington Center
12:02PM 38.5442 -79.2097 15° North 471 542 41,000  Level Washington Center
12:03PM 38.6747 -79.1711 13° North 471 542 41,000  Level Washington Center
12:04PM 38.8008 -79.1292 15° North 471 542 41,000  Level Washington Center
12:05PM 38.9294 -79.0875 14° North 471 542 41,000  Level Washington Center
12:07PM 39.1608 -79.0111 14° North 467 537 41,000  Level Cleveland Center
12:08PM 39.2778 -78.9836 10° North 479 551 41,000  Level Cleveland Center
12:09PM 39.4175 -78.9617 North 466 536 41,000 -720 Level Cleveland Center
12:14PM 40.1443 -78.8781 North 447 514 36,800 -780 Descending FlightAware ADS-B
12:15PM 40.1942 -78.8833 North 451 519 36,400 -780 Descending Cleveland Center
12:16PM 40.3356 -78.8875 359° North 426 490 35,000 -1,920 Descending Cleveland Center
12:17PM 40.4494 -78.8939 358° North 413 475 32,500 -2,520 Descending Cleveland Center
12:19PM 40.5672 -78.8692 North 428 493 29,800 -2,640 Descending Cleveland Center
12:20PM 40.6919 -78.8442 North 448 516 27,100 -2,640 Descending Cleveland Center
12:21PM 40.8183 -78.8183 North 458 527 24,400 -2,760 Descending Cleveland Center
12:22PM 40.9556 -78.7914 North 454 522 21,400 -2,880 Descending Cleveland Center
12:23PM 41.0856 -78.7633 North 436 502 18,500 -2,520 Descending Cleveland Center
12:24PM 41.1892 -78.7428 North 424 488 16,200 -2,460 Descending Cleveland Center
12:25PM 41.2994 -78.7203 North 407 468 13,500 -2,580 Descending Cleveland Center
12:26PM 41.4072 -78.6972 North 345 397 10,900 -2,400 Descending Cleveland Center
12:27PM 41.4931 -78.6794 North 318 366 8,600 -2,220 Descending Cleveland Center
12:28PM 41.5747 -78.6631 North 301 346 6,400 -2,160 Descending Cleveland Center